Granby, CO (80446)

6:25 AM MDT on July 23, 2016 (GMT -0600)
Innsbruck | | Change Station

Elev 8255 ft 40.05 °N, 105.92 °W | Updated 5 minutes ago

Clear
Clear
47.1 °F
Feels Like 47 °F
N
0.0
Wind Variable Wind from North
Gusts 1.6 mph

Today
High -- | Low -- °F
--% Chance of Precip.
Yesterday
High -- | Low -- °F
Precip. -- in
Pressure 30.41 in
Visibility 10.0 miles
Clouds Clear
Windchill 47 °F
Dew Point 35 °F
Humidity 62%
Rainfall 0.00 in
Snow Depth Not available.
5:54 AM 8:25 PM
Waning Gibbous, 85% visible
METAR K20V 231216Z AUTO 10003KT 10SM CLR 08/06 A3041 RMK AO2
Pressure 30.41 in
Visibility 10.0 miles
Clouds Clear
Windchill 47 °F
Dew Point 35 °F
Humidity 62%
Rainfall 0.00 in
Snow Depth Not available.
5:54 AM 8:25 PM
Waning Gibbous, 85% visible
METAR K20V 231216Z AUTO 10003KT 10SM CLR 08/06 A3041 RMK AO2

10-Day Weather Forecast

Almanac

Astronomy

Jul. 23, 2016 Rise Set
Actual Time
Civil Twilight
Nautical Twilight
Astronomical Twilight
Moon
Length of Visible Light
Length of Day
Tomorrow will be .
, % of the Moon is Illuminated

Today's Extremes

State Highs State Lows

Community

WunderPhotos

Upload Photos

1,926,813 photos uploaded!

WunderBlog® & News

Nearby

Air Quality

  Air Quality AQ Index Pollutant
Not available.

Snow Depth

Station Depth Elevation

Earthquake Activity

City Distance Mag. Time & Date
Minimum magnitude displayed is 2.5.

Coastal Water Temperatures

Place Temperature

Stations

Nearby Weather Stations

Station Location Temp. Windchill Dew Point Humidity Wind Precip. Elev Updated Type
                   

Watches & Warnings

There are currently no watches in effect.